createdAt,value
2022-12-19T00:00:22.236Z,43.83
2022-12-19T00:01:21.213Z,42.70
2022-12-19T00:02:21.264Z,43.34
2022-12-19T00:03:21.325Z,44.63
2022-12-19T00:04:21.256Z,44.63
2022-12-19T00:05:21.148Z,43.99
2022-12-19T00:06:21.113Z,44.96
2022-12-19T00:07:21.129Z,43.99
2022-12-19T00:08:21.098Z,43.18
2022-12-19T00:09:21.108Z,43.67
2022-12-19T00:10:21.101Z,43.99
2022-12-19T00:11:21.080Z,45.60
2022-12-19T00:12:21.059Z,45.12
2022-12-19T00:13:21.048Z,44.31
2022-12-19T00:14:21.051Z,47.53
2022-12-19T00:15:21.048Z,44.79
2022-12-19T00:16:21.089Z,44.31
2022-12-19T00:17:21.013Z,43.18
2022-12-19T00:18:21.014Z,43.83
2022-12-19T00:19:20.992Z,45.12
2022-12-19T00:20:21.069Z,45.12
2022-12-19T00:21:20.963Z,45.92
2022-12-19T00:22:20.969Z,46.41
2022-12-19T00:23:20.926Z,45.76
2022-12-19T00:24:21.826Z,45.28
2022-12-19T00:25:20.924Z,45.28
2022-12-19T00:26:20.896Z,45.92
2022-12-19T00:27:20.903Z,43.51
2022-12-19T00:28:20.910Z,43.67
2022-12-19T00:29:20.894Z,43.67
2022-12-19T00:30:20.844Z,42.70
2022-12-19T00:31:20.945Z,44.15
2022-12-19T00:32:20.839Z,43.02
2022-12-19T00:33:20.824Z,42.70
2022-12-19T00:34:20.877Z,42.70
2022-12-19T00:35:20.809Z,43.18
2022-12-19T00:36:22.785Z,43.02
2022-12-19T00:37:20.791Z,43.02
2022-12-19T00:38:20.791Z,43.34
2022-12-19T00:39:20.763Z,43.34
2022-12-19T00:40:20.790Z,43.34
2022-12-19T00:41:20.760Z,43.34
2022-12-19T00:42:20.732Z,43.34
2022-12-19T00:43:20.730Z,44.96
2022-12-19T00:44:20.739Z,44.15
2022-12-19T00:45:20.710Z,44.47
2022-12-19T00:46:20.788Z,44.47
2022-12-19T00:47:20.677Z,43.51
2022-12-19T00:48:20.691Z,44.15
2022-12-19T00:49:20.683Z,45.12
2022-12-19T00:50:20.640Z,44.96
2022-12-19T00:51:20.635Z,43.67
2022-12-19T00:52:20.739Z,43.83
2022-12-19T00:53:20.614Z,43.51
2022-12-19T00:54:20.601Z,42.86
2022-12-19T00:55:20.694Z,42.86
2022-12-19T00:56:20.575Z,42.70
2022-12-19T00:57:20.578Z,42.86
2022-12-19T00:58:20.579Z,43.99
2022-12-19T00:59:26.449Z,44.15
2022-12-19T01:00:21.541Z,44.31
2022-12-19T01:01:20.621Z,44.63
2022-12-19T01:02:20.640Z,45.92
2022-12-19T01:03:20.568Z,46.73
2022-12-19T01:04:29.226Z,45.60
2022-12-19T01:05:22.491Z,45.44
2022-12-19T01:06:20.463Z,45.92
2022-12-19T01:07:20.488Z,44.96
2022-12-19T01:08:20.550Z,45.76
2022-12-19T01:09:20.448Z,45.92
2022-12-19T01:10:52.369Z,44.63
2022-12-19T01:11:20.421Z,44.96
2022-12-19T01:12:21.016Z,45.92
2022-12-19T01:13:20.400Z,46.08
2022-12-19T01:14:23.107Z,45.76
2022-12-19T01:15:21.386Z,47.21
2022-12-19T01:16:20.412Z,48.50
2022-12-19T01:17:20.370Z,49.47
2022-12-19T01:18:20.366Z,48.02
2022-12-19T01:19:20.339Z,50.27
2022-12-19T01:20:24.305Z,48.18
2022-12-19T01:21:21.340Z,47.53
2022-12-19T01:22:20.309Z,44.31
2022-12-19T01:23:20.305Z,46.25
2022-12-19T01:24:20.371Z,44.79
2022-12-19T01:25:20.296Z,42.54
2022-12-19T01:26:20.266Z,45.12
2022-12-19T01:27:20.284Z,47.21
2022-12-19T01:28:20.229Z,44.15
2022-12-19T01:29:20.225Z,44.63
2022-12-19T01:30:20.252Z,45.12
2022-12-19T01:31:20.258Z,43.67
2022-12-19T01:32:20.202Z,43.18
2022-12-19T01:33:20.197Z,44.15
2022-12-19T01:34:20.193Z,43.34
2022-12-19T01:35:22.056Z,42.86
2022-12-19T01:36:20.213Z,44.31
2022-12-19T01:37:20.165Z,46.25
2022-12-19T01:38:20.136Z,47.37
2022-12-19T01:39:20.137Z,50.11
2022-12-19T01:40:20.210Z,46.25
2022-12-19T01:41:20.103Z,45.76
2022-12-19T01:42:23.010Z,46.25
2022-12-19T01:43:20.088Z,47.86
2022-12-19T01:44:20.086Z,44.63
2022-12-19T01:45:20.084Z,45.92
2022-12-19T01:46:20.091Z,47.21
2022-12-19T01:47:20.059Z,45.44
2022-12-19T01:48:20.026Z,44.79
2022-12-19T01:49:20.220Z,44.47
2022-12-19T01:50:20.026Z,44.47
2022-12-19T01:51:20.083Z,45.92
2022-12-19T01:52:22.992Z,48.34
2022-12-19T01:53:19.971Z,49.63
2022-12-19T01:54:20.003Z,45.76
2022-12-19T01:55:19.956Z,46.25
2022-12-19T01:56:20.003Z,46.73
2022-12-19T01:57:19.926Z,44.96
2022-12-19T01:58:19.899Z,45.44
2022-12-19T01:59:19.905Z,45.92
2022-12-19T02:00:19.909Z,44.96
2022-12-19T02:01:19.987Z,47.21
2022-12-19T02:02:19.921Z,47.53
2022-12-19T02:03:19.888Z,43.99
2022-12-19T02:04:19.838Z,44.47
2022-12-19T02:05:19.847Z,44.47
2022-12-19T02:06:19.842Z,48.50
2022-12-19T02:07:20.810Z,44.63
2022-12-19T02:08:19.785Z,45.28
2022-12-19T02:09:19.810Z,45.28
2022-12-19T02:10:19.780Z,44.63
2022-12-19T02:11:20.792Z,45.60
2022-12-19T02:12:19.845Z,44.47
2022-12-19T02:13:19.771Z,45.28
2022-12-19T02:14:19.735Z,45.60
2022-12-19T02:15:19.718Z,43.83
2022-12-19T02:16:19.762Z,44.15
2022-12-19T02:17:20.725Z,43.67
2022-12-19T02:18:19.719Z,44.63
2022-12-19T02:19:19.697Z,44.15
2022-12-19T02:20:19.705Z,46.08
2022-12-19T02:21:19.661Z,46.89
2022-12-19T02:22:19.658Z,47.21
2022-12-19T02:23:19.648Z,46.89
2022-12-19T02:24:19.624Z,45.28
2022-12-19T02:25:19.615Z,46.73
2022-12-19T02:26:19.630Z,45.92
2022-12-19T02:27:19.611Z,46.41
2022-12-19T02:28:19.672Z,46.25
2022-12-19T02:29:19.595Z,46.73
2022-12-19T02:30:19.594Z,44.47
2022-12-19T02:31:19.601Z,45.44
2022-12-19T02:32:19.562Z,44.31
2022-12-19T02:33:19.564Z,44.15
2022-12-19T02:34:19.540Z,44.79
2022-12-19T02:35:19.538Z,45.76
2022-12-19T02:36:19.506Z,46.25
2022-12-19T02:37:19.530Z,44.31
2022-12-19T02:38:19.507Z,43.83
2022-12-19T02:39:19.507Z,43.83
2022-12-19T02:40:19.482Z,45.60
2022-12-19T02:41:19.463Z,42.86
2022-12-19T02:42:19.453Z,46.08
2022-12-19T02:43:19.456Z,44.96
2022-12-19T02:44:19.529Z,45.28
2022-12-19T02:45:23.502Z,45.76
2022-12-19T02:46:20.479Z,47.86
2022-12-19T02:47:19.403Z,46.25
2022-12-19T02:48:19.635Z,45.92
2022-12-19T02:49:24.998Z,47.21
2022-12-19T02:50:20.392Z,49.15
2022-12-19T02:51:19.370Z,47.53
2022-12-19T02:52:19.361Z,48.34
2022-12-19T02:53:20.087Z,49.95
2022-12-19T02:54:19.351Z,47.21
2022-12-19T02:55:19.334Z,49.15
2022-12-19T02:56:19.326Z,45.44
2022-12-19T02:57:19.332Z,46.08
2022-12-19T02:58:19.317Z,45.76
2022-12-19T02:59:19.303Z,46.57
2022-12-19T03:00:19.343Z,45.12
2022-12-19T03:01:19.386Z,44.79
2022-12-19T03:02:19.390Z,46.25
2022-12-19T03:03:19.285Z,48.66
2022-12-19T03:04:19.232Z,47.21
2022-12-19T03:05:19.217Z,45.12
2022-12-19T03:06:19.211Z,45.44
2022-12-19T03:07:19.206Z,46.89
2022-12-19T03:08:19.185Z,45.12
2022-12-19T03:09:19.212Z,46.08
2022-12-19T03:10:19.171Z,45.44
2022-12-19T03:11:19.148Z,45.28
2022-12-19T03:12:19.142Z,46.89
2022-12-19T03:13:19.140Z,46.25
2022-12-19T03:14:19.135Z,47.21
2022-12-19T03:15:19.106Z,44.79
2022-12-19T03:16:20.241Z,46.25
2022-12-19T03:17:19.106Z,46.57
2022-12-19T03:18:19.095Z,45.12
2022-12-19T03:19:19.087Z,46.25
2022-12-19T03:20:19.085Z,45.60
2022-12-19T03:21:19.056Z,44.63
2022-12-19T03:22:19.043Z,46.08
2022-12-19T03:23:19.053Z,48.18
2022-12-19T03:24:19.021Z,47.37
2022-12-19T03:25:19.006Z,45.12
2022-12-19T03:26:19.010Z,44.47
2022-12-19T03:27:19.993Z,45.28
2022-12-19T03:28:18.966Z,47.21
2022-12-19T03:29:18.991Z,44.79
2022-12-19T03:30:18.977Z,45.44
2022-12-19T03:31:19.003Z,46.89
2022-12-19T03:32:19.005Z,49.31
2022-12-19T03:33:19.931Z,49.31
2022-12-19T03:34:18.922Z,47.21
2022-12-19T03:35:19.954Z,48.18
2022-12-19T03:36:18.931Z,49.95
2022-12-19T03:37:18.887Z,48.66
2022-12-19T03:38:18.923Z,48.02
2022-12-19T03:39:18.863Z,50.92
2022-12-19T03:40:18.884Z,49.31
2022-12-19T03:41:18.837Z,48.18
2022-12-19T03:42:18.839Z,50.11
2022-12-19T03:43:18.857Z,49.95
2022-12-19T03:44:18.806Z,50.11
2022-12-19T03:45:18.807Z,47.70
2022-12-19T03:46:18.885Z,47.37
2022-12-19T03:47:18.803Z,48.02
2022-12-19T03:48:18.858Z,47.37
2022-12-19T03:49:18.775Z,46.08
2022-12-19T03:50:18.765Z,45.28
2022-12-19T03:51:18.750Z,48.34
2022-12-19T03:52:18.736Z,51.40
2022-12-19T03:53:18.726Z,48.66
2022-12-19T03:54:18.755Z,45.92
2022-12-19T03:55:18.709Z,48.18
2022-12-19T03:56:18.686Z,49.31
2022-12-19T03:57:18.711Z,49.79
2022-12-19T03:58:18.707Z,48.98
2022-12-19T03:59:18.678Z,48.82
2022-12-19T04:00:18.669Z,49.95
2022-12-19T04:01:18.769Z,49.95
2022-12-19T04:02:18.675Z,48.18
2022-12-19T04:03:18.642Z,49.95
2022-12-19T04:04:18.701Z,50.27
2022-12-19T04:05:18.606Z,50.43
2022-12-19T04:06:18.577Z,48.98
2022-12-19T04:07:18.603Z,48.66
2022-12-19T04:08:18.554Z,47.53
2022-12-19T04:09:22.441Z,49.79
2022-12-19T04:10:19.591Z,50.92
2022-12-19T04:11:18.539Z,49.63
2022-12-19T04:12:18.514Z,47.70
2022-12-19T04:13:18.508Z,51.08
2022-12-19T04:14:18.508Z,51.88
2022-12-19T04:15:18.487Z,48.66
2022-12-19T04:16:18.526Z,53.82
2022-12-19T04:17:18.498Z,52.37
2022-12-19T04:18:18.472Z,51.56
2022-12-19T04:19:18.467Z,50.92
2022-12-19T04:20:18.522Z,55.43
2022-12-19T04:21:18.443Z,53.82
2022-12-19T04:22:18.425Z,52.21
2022-12-19T04:23:18.415Z,49.47
2022-12-19T04:24:18.417Z,49.95
2022-12-19T04:25:18.384Z,54.62
2022-12-19T04:26:18.386Z,56.07
2022-12-19T04:27:18.398Z,54.14
2022-12-19T04:28:18.354Z,54.46
2022-12-19T04:29:18.343Z,56.24
2022-12-19T04:30:18.348Z,53.66
2022-12-19T04:31:18.376Z,53.33
2022-12-19T04:32:18.385Z,53.82
2022-12-19T04:33:18.306Z,55.11
2022-12-19T04:34:18.292Z,56.56
2022-12-19T04:35:18.303Z,54.95
2022-12-19T04:36:18.404Z,54.79
2022-12-19T04:37:18.265Z,54.14
2022-12-19T04:38:18.263Z,53.33
2022-12-19T04:39:18.277Z,55.11
2022-12-19T04:40:18.248Z,52.21
2022-12-19T04:41:18.214Z,54.62
2022-12-19T04:42:18.202Z,53.66
2022-12-19T04:43:18.200Z,53.66
2022-12-19T04:44:18.232Z,55.43
2022-12-19T04:45:18.208Z,54.46
2022-12-19T04:46:18.187Z,54.46
2022-12-19T04:47:18.161Z,56.40
2022-12-19T04:48:18.170Z,54.79
2022-12-19T04:49:18.162Z,52.69
2022-12-19T04:50:18.126Z,55.43
2022-12-19T04:51:18.119Z,55.27
2022-12-19T04:52:18.190Z,54.95
2022-12-19T04:53:18.108Z,52.53
2022-12-19T04:54:18.077Z,54.14
2022-12-19T04:55:18.082Z,53.98
2022-12-19T04:56:18.064Z,54.46
2022-12-19T04:57:18.060Z,52.85
2022-12-19T04:58:21.909Z,51.88
2022-12-19T04:59:19.082Z,53.50
2022-12-19T05:00:18.028Z,53.50
2022-12-19T05:01:18.072Z,56.88
2022-12-19T05:02:18.102Z,53.33
2022-12-19T05:03:18.061Z,53.50
2022-12-19T05:04:17.983Z,54.46
2022-12-19T05:05:17.967Z,55.59
2022-12-19T05:06:17.942Z,54.46
2022-12-19T05:07:17.952Z,55.11
2022-12-19T05:08:18.037Z,55.27
2022-12-19T05:09:17.931Z,55.43
2022-12-19T05:10:17.929Z,52.05
2022-12-19T05:11:19.938Z,52.05
2022-12-19T05:12:18.891Z,53.98
2022-12-19T05:13:17.886Z,53.66
2022-12-19T05:14:17.863Z,51.72
2022-12-19T05:15:17.865Z,52.69
2022-12-19T05:16:18.011Z,54.95
2022-12-19T05:17:17.832Z,53.17
2022-12-19T05:18:17.830Z,52.21
2022-12-19T05:19:17.867Z,53.01
2022-12-19T05:20:17.806Z,52.53
2022-12-19T05:21:17.891Z,52.21
2022-12-19T05:22:17.787Z,52.37
2022-12-19T05:23:17.962Z,53.33
2022-12-19T05:24:17.887Z,55.59
2022-12-19T05:25:17.760Z,54.30
2022-12-19T05:26:17.749Z,53.82
2022-12-19T05:27:17.753Z,53.98
2022-12-19T05:28:17.718Z,52.69
2022-12-19T05:29:17.729Z,54.14
2022-12-19T05:30:17.715Z,55.91
2022-12-19T05:31:17.772Z,54.46
2022-12-19T05:32:17.671Z,54.14
2022-12-19T05:33:17.676Z,56.24
2022-12-19T05:34:17.670Z,50.92
2022-12-19T05:35:17.670Z,50.43
2022-12-19T05:36:17.652Z,54.79
2022-12-19T05:37:17.626Z,53.50
2022-12-19T05:38:17.672Z,53.98
2022-12-19T05:39:17.598Z,56.07
2022-12-19T05:40:17.746Z,55.27
2022-12-19T05:41:17.594Z,53.98
2022-12-19T05:42:17.569Z,55.91
2022-12-19T05:43:17.588Z,53.82
2022-12-19T05:44:17.550Z,55.11
2022-12-19T05:45:17.581Z,54.30
2022-12-19T05:46:17.570Z,55.11
2022-12-19T05:47:17.531Z,55.91
2022-12-19T05:48:17.525Z,55.59
2022-12-19T05:49:17.500Z,53.17
2022-12-19T05:50:17.495Z,54.95
2022-12-19T05:51:17.488Z,55.43
2022-12-19T05:52:17.480Z,56.07
2022-12-19T05:53:19.699Z,52.53
2022-12-19T05:54:18.440Z,54.46
2022-12-19T05:55:17.440Z,55.59
2022-12-19T05:56:18.514Z,55.75
2022-12-19T05:57:17.417Z,57.04
2022-12-19T05:58:17.423Z,56.56
2022-12-19T05:59:17.408Z,56.24
2022-12-19T06:00:17.394Z,56.56
2022-12-19T06:01:17.416Z,56.56
2022-12-19T06:02:17.557Z,55.75
2022-12-19T06:03:17.432Z,57.04
2022-12-19T06:04:17.343Z,56.40
2022-12-19T06:05:17.322Z,54.95
2022-12-19T06:06:18.367Z,54.30
2022-12-19T06:07:20.915Z,53.50
2022-12-19T06:08:18.295Z,54.14
2022-12-19T06:09:17.320Z,53.66
2022-12-19T06:10:17.291Z,53.33
2022-12-19T06:11:17.289Z,54.79
2022-12-19T06:12:17.353Z,54.79
2022-12-19T06:13:20.886Z,53.82
2022-12-19T06:14:18.268Z,55.43
2022-12-19T06:15:17.210Z,57.20
2022-12-19T06:16:17.228Z,52.69
2022-12-19T06:17:17.196Z,53.50
2022-12-19T06:18:17.195Z,55.43
2022-12-19T06:19:17.191Z,52.53
2022-12-19T06:20:17.168Z,53.17
2022-12-19T06:21:17.175Z,52.53
2022-12-19T06:22:17.157Z,55.27
2022-12-19T06:23:17.134Z,54.95
2022-12-19T06:24:17.215Z,58.81
2022-12-19T06:25:17.120Z,56.07
2022-12-19T06:26:19.555Z,54.14
2022-12-19T06:27:18.095Z,51.72
2022-12-19T06:28:17.188Z,53.50
2022-12-19T06:29:17.081Z,52.53
2022-12-19T06:30:17.050Z,53.98
2022-12-19T06:31:17.099Z,54.46
2022-12-19T06:32:17.043Z,54.30
2022-12-19T06:33:17.031Z,54.14
2022-12-19T06:34:33.214Z,53.17
2022-12-19T06:35:19.005Z,52.37
2022-12-19T06:36:17.030Z,49.31
2022-12-19T06:37:17.012Z,53.66
2022-12-19T06:38:17.007Z,53.82
2022-12-19T06:39:16.963Z,55.59
2022-12-19T06:40:16.939Z,54.62
2022-12-19T06:41:16.931Z,55.11
2022-12-19T06:42:16.909Z,53.50
2022-12-19T06:43:16.897Z,54.30
2022-12-19T06:44:16.925Z,55.11
2022-12-19T06:45:16.951Z,57.20
2022-12-19T06:46:16.909Z,55.11
2022-12-19T06:47:17.868Z,53.50
2022-12-19T06:48:16.860Z,54.30
2022-12-19T06:49:16.850Z,53.33
2022-12-19T06:50:16.825Z,54.46
2022-12-19T06:51:16.841Z,55.75
2022-12-19T06:52:16.827Z,56.07
2022-12-19T06:53:16.818Z,53.66
2022-12-19T06:54:16.809Z,53.01
2022-12-19T06:55:16.794Z,55.11
2022-12-19T06:56:16.788Z,56.07
2022-12-19T06:57:16.756Z,54.46
2022-12-19T06:58:21.389Z,55.11
2022-12-19T06:59:18.747Z,53.50
2022-12-19T07:00:16.827Z,55.75
2022-12-19T07:01:16.787Z,56.56
2022-12-19T07:02:16.809Z,55.75
2022-12-19T07:03:16.705Z,53.98
2022-12-19T07:04:16.698Z,56.40
2022-12-19T07:05:16.733Z,57.69
2022-12-19T07:06:16.678Z,55.91
2022-12-19T07:07:16.675Z,53.98
2022-12-19T07:08:16.656Z,57.20
2022-12-19T07:09:16.644Z,56.56
2022-12-19T07:10:16.676Z,57.69
2022-12-19T07:11:49.533Z,54.95
2022-12-19T07:12:16.610Z,54.62
2022-12-19T07:13:16.567Z,57.04
2022-12-19T07:14:16.573Z,59.94
2022-12-19T07:15:16.586Z,58.01
2022-12-19T07:16:16.691Z,56.24
2022-12-19T07:17:16.543Z,58.17
2022-12-19T07:18:16.552Z,55.11
2022-12-19T07:19:16.520Z,57.20
2022-12-19T07:20:16.507Z,56.24
2022-12-19T07:21:16.517Z,54.46
2022-12-19T07:22:16.500Z,56.88
2022-12-19T07:23:16.482Z,54.46
2022-12-19T07:24:16.475Z,54.62
2022-12-19T07:25:16.480Z,57.36
2022-12-19T07:26:16.446Z,58.33
2022-12-19T07:27:16.467Z,56.24
2022-12-19T07:28:16.447Z,57.04
2022-12-19T07:29:16.397Z,55.91
2022-12-19T07:30:16.404Z,55.43
2022-12-19T07:31:16.495Z,53.82
2022-12-19T07:32:16.481Z,53.66
2022-12-19T07:33:21.172Z,58.17
2022-12-19T07:34:18.376Z,53.98
2022-12-19T07:35:16.336Z,55.59
2022-12-19T07:36:16.335Z,57.20
2022-12-19T07:37:16.342Z,54.14
2022-12-19T07:38:16.327Z,54.79
2022-12-19T07:39:16.293Z,55.91
2022-12-19T07:40:16.304Z,54.79
2022-12-19T07:41:16.298Z,56.56
2022-12-19T07:42:16.277Z,57.20
2022-12-19T07:43:16.272Z,58.33
2022-12-19T07:44:16.250Z,54.95
2022-12-19T07:45:16.271Z,56.56
2022-12-19T07:46:16.296Z,57.69
2022-12-19T07:47:16.207Z,56.07
2022-12-19T07:48:16.211Z,57.36
2022-12-19T07:49:22.345Z,54.95
2022-12-19T07:50:18.184Z,56.88
2022-12-19T07:51:16.198Z,57.69
2022-12-19T07:52:16.160Z,54.95
2022-12-19T07:53:16.164Z,57.85
2022-12-19T07:54:16.144Z,54.79
2022-12-19T07:55:16.154Z,55.43
2022-12-19T07:56:16.128Z,54.30
2022-12-19T07:57:16.092Z,55.11
2022-12-19T07:58:16.130Z,54.30
2022-12-19T07:59:16.080Z,57.85
2022-12-19T08:00:16.113Z,57.20
2022-12-19T08:01:16.201Z,54.95
2022-12-19T08:02:16.134Z,56.72
2022-12-19T08:03:16.097Z,54.62
2022-12-19T08:04:17.158Z,56.07
2022-12-19T08:05:16.055Z,56.56
2022-12-19T08:06:16.020Z,56.24
2022-12-19T08:07:16.051Z,56.24
2022-12-19T08:08:16.011Z,56.88
2022-12-19T08:09:16.001Z,58.65
2022-12-19T08:10:15.968Z,54.46
2022-12-19T08:11:15.994Z,56.88
2022-12-19T08:12:15.981Z,57.69
2022-12-19T08:13:15.927Z,51.40
2022-12-19T08:14:15.929Z,51.24
2022-12-19T08:15:15.946Z,57.20
2022-12-19T08:16:15.967Z,56.72
2022-12-19T08:17:20.682Z,56.07
2022-12-19T08:18:17.888Z,57.36
2022-12-19T08:19:15.924Z,57.04
2022-12-19T08:20:15.983Z,57.20
2022-12-19T08:21:15.852Z,58.33
2022-12-19T08:22:15.905Z,56.88
2022-12-19T08:23:15.822Z,55.11
2022-12-19T08:24:15.837Z,56.07
2022-12-19T08:25:15.843Z,58.17
2022-12-19T08:26:15.813Z,56.72
2022-12-19T08:27:15.803Z,56.72
2022-12-19T08:28:15.777Z,57.04
2022-12-19T08:29:15.809Z,56.07
2022-12-19T08:30:15.753Z,57.52
2022-12-19T08:31:15.860Z,55.11
2022-12-19T08:32:20.456Z,56.40
2022-12-19T08:33:17.720Z,54.79
2022-12-19T08:34:15.725Z,58.65
2022-12-19T08:35:15.728Z,57.04
2022-12-19T08:36:15.810Z,58.33
2022-12-19T08:37:15.680Z,56.72
2022-12-19T08:38:15.702Z,58.65
2022-12-19T08:39:15.665Z,57.20
2022-12-19T08:40:15.675Z,59.30
2022-12-19T08:41:15.696Z,57.20
2022-12-19T08:42:15.678Z,55.59
2022-12-19T08:43:15.617Z,56.24
2022-12-19T08:44:15.658Z,59.30
2022-12-19T08:45:15.650Z,57.20
2022-12-19T08:46:15.662Z,58.17
2022-12-19T08:47:15.581Z,57.52
2022-12-19T08:48:15.603Z,54.95
2022-12-19T08:49:15.587Z,56.40
2022-12-19T08:50:15.566Z,57.52
2022-12-19T08:51:15.538Z,56.88
2022-12-19T08:52:15.622Z,56.72
2022-12-19T08:53:17.184Z,55.11
2022-12-19T08:54:15.539Z,57.04
2022-12-19T08:55:15.524Z,55.75
2022-12-19T08:56:15.518Z,54.30
2022-12-19T08:57:15.521Z,54.95
2022-12-19T08:58:15.479Z,56.24
2022-12-19T08:59:18.489Z,58.97
2022-12-19T09:00:16.477Z,56.88
2022-12-19T09:01:15.515Z,53.98
2022-12-19T09:02:15.622Z,55.91
2022-12-19T09:03:16.586Z,57.20
2022-12-19T09:05:55.447Z,56.24
2022-12-19T09:06:01.765Z,56.56
2022-12-19T09:06:19.399Z,57.04
2022-12-19T09:07:16.560Z,56.56
2022-12-19T09:08:15.453Z,56.72
2022-12-19T09:09:15.397Z,56.88
2022-12-19T09:10:15.357Z,55.43
2022-12-19T09:11:15.446Z,54.95
2022-12-19T09:12:15.335Z,56.40
2022-12-19T09:13:15.329Z,56.72
2022-12-19T09:14:15.703Z,54.79
2022-12-19T09:15:16.311Z,53.98
2022-12-19T09:16:15.293Z,54.14
2022-12-19T09:17:15.462Z,55.59
2022-12-19T09:18:15.334Z,57.20
2022-12-19T09:19:15.418Z,57.20
2022-12-19T09:20:21.275Z,57.20
2022-12-19T09:21:17.223Z,58.65
2022-12-19T09:22:15.224Z,57.69
2022-12-19T09:23:15.229Z,57.52
2022-12-19T09:24:15.335Z,56.88
2022-12-19T09:25:15.174Z,58.01
2022-12-19T09:26:15.228Z,57.69
2022-12-19T09:27:15.164Z,54.79
2022-12-19T09:28:27.431Z,57.04
2022-12-19T09:29:20.470Z,56.24
2022-12-19T09:30:15.156Z,56.56
2022-12-19T09:31:15.167Z,57.04
2022-12-19T09:32:15.113Z,57.20
2022-12-19T09:33:15.117Z,59.62
2022-12-19T09:34:15.098Z,57.04
2022-12-19T09:35:15.104Z,58.65
2022-12-19T09:36:15.084Z,59.78
2022-12-19T09:37:16.790Z,57.20
2022-12-19T09:38:15.074Z,55.43
2022-12-19T09:39:15.062Z,55.11
2022-12-19T09:40:15.129Z,57.36
2022-12-19T09:41:15.078Z,58.49
2022-12-19T09:42:15.035Z,56.24
2022-12-19T09:43:14.999Z,55.75
2022-12-19T09:44:14.990Z,56.24
2022-12-19T09:45:18.721Z,59.62
2022-12-19T09:46:16.028Z,56.56
2022-12-19T09:47:14.945Z,57.85
2022-12-19T09:48:23.576Z,58.17
2022-12-19T09:49:15.990Z,56.40
2022-12-19T09:50:14.984Z,56.40
2022-12-19T09:51:14.998Z,56.24
2022-12-19T09:52:14.918Z,55.91
2022-12-19T09:53:14.926Z,56.88
2022-12-19T09:54:14.908Z,54.30
2022-12-19T09:55:16.806Z,58.49
2022-12-19T09:56:14.966Z,58.33
2022-12-19T09:57:14.874Z,57.52
2022-12-19T09:58:14.856Z,56.56
2022-12-19T09:59:14.845Z,56.24
2022-12-19T10:00:14.831Z,58.33
2022-12-19T10:01:14.880Z,57.04
2022-12-19T10:02:15.141Z,57.20
2022-12-19T10:03:14.999Z,56.88
2022-12-19T10:04:14.787Z,59.14
2022-12-19T10:05:37.522Z,57.69
2022-12-19T10:07:07.708Z,58.17
2022-12-19T10:07:40.093Z,55.91
2022-12-19T10:08:16.746Z,58.81
2022-12-19T10:10:37.535Z,55.91
2022-12-19T10:12:36.037Z,56.24
2022-12-19T10:12:39.117Z,59.14
2022-12-19T10:12:44.974Z,59.94
2022-12-19T10:13:17.653Z,56.24
2022-12-19T10:14:14.738Z,56.72
2022-12-19T10:15:14.681Z,55.27
2022-12-19T10:16:14.675Z,54.95
2022-12-19T10:17:29.887Z,59.14
2022-12-19T10:18:16.692Z,58.33
2022-12-19T10:19:14.671Z,58.97
2022-12-19T10:20:14.653Z,56.72
2022-12-19T10:21:14.605Z,57.20
2022-12-19T10:22:19.163Z,57.52
2022-12-19T10:23:15.626Z,56.88
2022-12-19T10:24:14.611Z,58.17
2022-12-19T10:25:14.544Z,57.69
2022-12-19T10:26:14.585Z,57.69
2022-12-19T10:27:14.599Z,56.40
2022-12-19T10:28:14.628Z,60.42
2022-12-19T10:29:14.513Z,59.14
2022-12-19T10:30:14.565Z,54.79
2022-12-19T10:31:21.452Z,57.04
2022-12-19T10:32:16.553Z,55.59
2022-12-19T10:33:20.157Z,55.91
2022-12-19T10:34:15.482Z,56.56
2022-12-19T10:35:14.469Z,60.91
2022-12-19T10:36:14.464Z,58.65
2022-12-19T10:37:27.296Z,58.01
2022-12-19T10:38:15.452Z,58.17
2022-12-19T10:39:14.474Z,56.88
2022-12-19T10:40:17.617Z,56.07
2022-12-19T10:41:15.393Z,57.36
2022-12-19T10:42:14.392Z,58.17
2022-12-19T10:43:22.946Z,57.69
2022-12-19T10:44:16.450Z,59.46
2022-12-19T10:45:14.420Z,59.78
2022-12-19T10:46:14.457Z,59.30
2022-12-19T10:47:14.367Z,56.56
2022-12-19T10:48:14.435Z,57.04
2022-12-19T10:49:14.362Z,58.01
2022-12-19T10:50:14.310Z,57.20
2022-12-19T10:51:14.297Z,57.36
2022-12-19T10:52:14.302Z,60.26
2022-12-19T10:53:14.309Z,57.04
2022-12-19T10:54:14.246Z,57.20
2022-12-19T10:55:14.290Z,57.52
2022-12-19T10:56:14.255Z,58.49
2022-12-19T10:57:14.254Z,56.88
2022-12-19T10:58:14.271Z,56.88
2022-12-19T10:59:14.238Z,57.04
2022-12-19T11:00:14.295Z,58.17
2022-12-19T11:01:14.215Z,58.65
2022-12-19T11:02:14.390Z,56.72
2022-12-19T11:03:19.135Z,58.01
2022-12-19T11:04:15.167Z,59.94
2022-12-19T11:05:14.287Z,58.49
2022-12-19T11:06:14.212Z,56.24
2022-12-19T11:07:14.178Z,56.56
2022-12-19T11:08:14.212Z,58.65
2022-12-19T11:09:14.182Z,55.11
2022-12-19T11:10:49.724Z,55.75
2022-12-19T11:13:26.469Z,59.30
2022-12-19T11:15:41.317Z,58.33
2022-12-19T11:16:30.290Z,56.56
2022-12-19T11:18:27.783Z,58.17
2022-12-19T11:20:27.354Z,58.81
2022-12-19T11:20:42.039Z,58.01
2022-12-19T11:21:28.369Z,58.17
2022-12-19T11:27:37.709Z,57.85
2022-12-19T11:28:30.135Z,58.65
2022-12-19T11:29:38.252Z,57.69
2022-12-19T11:29:40.837Z,59.78
2022-12-19T11:29:44.970Z,58.65
2022-12-19T11:29:54.274Z,57.20
2022-12-19T11:29:54.358Z,60.91
2022-12-19T11:30:36.476Z,58.01
2022-12-19T11:30:38.166Z,58.65
2022-12-19T11:30:46.077Z,57.20
2022-12-19T11:30:47.265Z,57.52
2022-12-19T11:30:58.922Z,58.65
2022-12-19T11:33:15.956Z,58.01
2022-12-19T11:34:13.860Z,56.88
2022-12-19T11:35:13.912Z,57.04
2022-12-19T11:36:13.846Z,55.75
2022-12-19T11:37:13.873Z,56.56
2022-12-19T11:38:13.825Z,56.24
2022-12-19T11:39:13.841Z,57.85
2022-12-19T11:40:13.905Z,57.85
2022-12-19T11:41:13.808Z,57.04
2022-12-19T11:42:13.817Z,56.72
2022-12-19T11:44:15.849Z,59.46
2022-12-19T11:45:13.751Z,59.14
2022-12-19T11:46:19.458Z,58.17
2022-12-19T11:47:15.715Z,58.97
2022-12-19T11:48:13.762Z,59.14
2022-12-19T11:49:13.785Z,56.56
2022-12-19T11:50:13.883Z,58.65
2022-12-19T11:51:13.752Z,58.49
2022-12-19T11:52:36.992Z,58.01
2022-12-19T11:53:19.225Z,59.62
2022-12-19T11:54:14.724Z,57.52
2022-12-19T11:55:13.673Z,57.20
2022-12-19T11:56:16.432Z,56.40
2022-12-19T11:57:13.659Z,55.91
2022-12-19T11:58:13.628Z,56.07
2022-12-19T11:59:13.631Z,59.94
2022-12-19T12:00:13.643Z,60.42
2022-12-19T12:01:13.590Z,59.14
2022-12-19T12:02:13.635Z,59.30
2022-12-19T12:03:13.709Z,58.01
2022-12-19T12:04:13.839Z,60.59
2022-12-19T12:05:13.586Z,60.42
2022-12-19T12:06:13.582Z,59.30
2022-12-19T12:07:43.963Z,61.55
2022-12-19T12:09:06.969Z,58.33
2022-12-19T12:14:15.474Z,57.36
2022-12-19T12:14:27.942Z,58.65
2022-12-19T12:14:34.314Z,59.94
2022-12-19T12:18:11.361Z,58.65
2022-12-19T12:19:48.579Z,57.04
2022-12-19T12:22:53.763Z,59.78
2022-12-19T12:24:04.532Z,60.10
2022-12-19T12:25:33.977Z,60.26
2022-12-19T12:30:59.124Z,59.14
2022-12-19T12:30:59.355Z,60.10
2022-12-19T12:31:05.423Z,58.81
2022-12-19T12:31:05.599Z,60.26
2022-12-19T12:31:10.257Z,58.49
2022-12-19T12:31:10.658Z,59.46
2022-12-19T12:31:21.108Z,58.65
2022-12-19T12:31:26.201Z,59.46
2022-12-19T12:31:38.594Z,58.17
2022-12-19T12:31:41.878Z,58.65
2022-12-19T12:31:45.687Z,58.49
2022-12-19T12:31:46.437Z,58.33
2022-12-19T12:31:46.923Z,59.78
2022-12-19T12:31:58.103Z,59.62
2022-12-19T12:35:35.106Z,60.75
2022-12-19T12:35:43.566Z,60.75
2022-12-19T12:35:56.637Z,60.10
2022-12-19T12:38:00.398Z,60.91
2022-12-19T12:38:25.904Z,58.33
2022-12-19T12:39:20.726Z,58.81
2022-12-19T12:40:15.282Z,60.75
2022-12-19T12:41:14.157Z,58.33
2022-12-19T12:42:13.177Z,59.94
2022-12-19T12:43:13.209Z,58.49
2022-12-19T12:44:13.148Z,59.94
2022-12-19T12:45:13.103Z,60.26
2022-12-19T12:46:13.302Z,58.01
2022-12-19T12:47:13.084Z,60.91
2022-12-19T12:48:13.112Z,58.97
2022-12-19T12:49:13.112Z,58.97
2022-12-19T12:50:13.075Z,58.81
2022-12-19T12:51:13.073Z,57.85
2022-12-19T12:52:13.112Z,59.46
2022-12-19T12:53:13.058Z,59.46
2022-12-19T12:54:13.053Z,57.69
2022-12-19T12:55:13.024Z,57.36
2022-12-19T12:56:13.044Z,57.04
2022-12-19T12:57:12.990Z,58.33
2022-12-19T12:58:15.328Z,59.94
2022-12-19T12:59:14.008Z,59.14